Time;durP1;ratioP1;P1;durP2;ratioP2;P2;SDS_P1;SDS_P2;PMS_P1;PMS_P2;Temp;Humidity;BMP_temperature;BMP_pressure;BME280_temperature;BME280_humidity;BME280_pressure;Samples;Min_cycle;Max_cycle;Signal;HPM_P1;HPM_P2
2022/02/11 00:01:54;;;;;;;;;17.00;15.60;;;;;14.68;39.82;98924.44;6221419;28;97158;-74
2022/02/11 00:08:32;;;;;;;;;15.80;14.20;;;;;14.69;39.94;98926.09;6240781;27;96425;-70
2022/02/11 00:11:37;;;;;;;;;19.00;16.80;;;;;14.65;40.30;98933.09;6222382;28;96918;-70
2022/02/11 00:14:49;;;;;;;;;15.00;15.00;;;;;14.64;40.01;98926.00;6243230;27;96444;-73
2022/02/11 00:17:54;;;;;;;;;18.60;17.40;;;;;14.65;40.06;98931.22;6226180;27;97466;-73
2022/02/11 00:20:58;;;;;;;;;21.00;19.50;;;;;14.64;40.15;98929.56;6234966;27;96599;-73
2022/02/11 00:24:01;;;;;;;;;19.20;17.00;;;;;14.69;40.04;98940.50;6232049;28;96517;-72
2022/02/11 00:27:36;;;;;;;;;16.40;16.00;;;;;14.65;39.98;98925.78;6222548;28;96901;-74
2022/02/11 00:34:07;;;;;;;;;18.00;16.40;;;;;14.68;40.15;98946.97;6175350;28;98537;-71
2022/02/11 00:37:15;;;;;;;;;19.80;18.20;;;;;14.71;40.00;98946.47;6222489;28;98508;-71
2022/02/11 00:40:30;;;;;;;;;20.00;19.00;;;;;14.68;40.45;98946.16;6240063;27;96873;-71
2022/02/11 01:03:58;;;;;;;;;21.00;19.75;;;;;14.21;44.18;98957.28;6250139;27;97422;-71
2022/02/11 01:07:01;;;;;;;;;19.50;17.75;;;;;14.18;44.31;98957.75;6262063;27;96906;-73
2022/02/11 01:10:05;;;;;;;;;18.00;17.20;;;;;14.11;44.54;98951.66;6262780;27;97555;-72
2022/02/11 01:13:08;;;;;;;;;23.00;20.00;;;;;13.96;45.37;98942.41;6258151;27;97484;-72
2022/02/11 01:16:17;;;;;;;;;20.00;18.00;;;;;13.86;45.58;98943.88;6257843;27;97568;-74
2022/02/11 01:19:31;;;;;;;;;20.20;18.80;;;;;13.71;45.94;98940.84;6258285;27;98026;-71
2022/02/11 01:22:48;;;;;;;;;18.60;18.00;;;;;13.65;46.13;98949.94;6237565;27;96980;-71
2022/02/11 01:26:11;;;;;;;;;20.00;18.40;;;;;13.62;46.24;98944.19;6243031;27;99924;-70
2022/02/11 01:29:45;;;;;;;;;17.80;16.00;;;;;13.51;46.71;98945.03;6261660;27;97083;-73
2022/02/11 01:33:10;;;;;;;;;19.00;19.00;;;;;13.46;46.98;98945.75;6261395;27;97249;-74
2022/02/11 01:36:30;;;;;;;;;19.60;18.00;;;;;13.34;47.61;98945.75;6240104;27;96823;-72
2022/02/11 01:50:29;;;;;;;;;21.00;19.00;;;;;13.40;46.80;98944.81;6180119;28;98367;-74
2022/02/11 01:53:39;;;;;;;;;21.00;17.80;;;;;13.40;46.97;98941.28;6202224;27;96742;-72
2022/02/11 01:56:55;;;;;;;;;20.00;18.80;;;;;13.32;47.24;98939.75;6256643;27;96969;-72
2022/02/11 02:23:33;;;;;;;;;21.60;20.00;;;;;13.28;46.57;98902.56;6215024;28;100119;-73
2022/02/11 02:26:57;;;;;;;;;23.00;21.00;;;;;13.31;46.42;98904.78;6243324;27;97433;-71
2022/02/11 02:56:35;;;;;;;;;26.20;22.00;;;;;13.56;45.45;98893.66;6237388;28;97546;-73
2022/02/11 02:57:27;;;;;;;;;25.20;23.20;;;;;13.58;45.11;98892.38;6244184;27;97876;-73
2022/02/11 03:14:55;;;;;;;;;21.40;20.20;;;;;13.43;44.96;98898.31;6208766;27;96991;-72
2022/02/11 03:34:35;;;;;;;;;19.80;19.00;;;;;13.25;45.26;98906.56;6245585;27;98198;-71
2022/02/11 03:35:04;;;;;;;;;20.00;20.00;;;;;13.35;45.00;98903.25;6223340;28;97184;-71
2022/02/11 03:48:53;;;;;;;;;22.00;21.00;;;;;13.43;44.83;98919.97;6242601;27;96920;-72
2022/02/11 03:59:16;;;;;;;;;22.00;19.00;;;;;13.20;44.89;98873.16;6259663;27;96521;-73
2022/02/11 04:22:55;;;;;;;;;22.75;21.00;;;;;13.56;44.34;98915.31;6181283;28;97962;-74
2022/02/11 04:27:10;;;;;;;;;24.00;22.40;;;;;13.58;44.45;98910.50;6186632;28;96515;-74
2022/02/11 04:56:36;;;;;;;;;22.75;19.75;;;;;13.80;43.67;98919.59;6257890;27;96559;-74
2022/02/11 04:59:46;;;;;;;;;26.40;21.00;;;;;13.81;43.55;98919.38;6264149;27;97721;-72
2022/02/11 05:02:50;;;;;;;;;22.00;20.00;;;;;13.77;43.47;98912.78;6250992;27;96650;-72
2022/02/11 05:05:54;;;;;;;;;20.00;20.00;;;;;13.78;43.47;98916.34;6264062;27;96510;-72
2022/02/11 05:08:59;;;;;;;;;21.00;20.00;;;;;13.73;43.51;98925.16;6247617;27;97510;-71
2022/02/11 05:12:03;;;;;;;;;23.60;20.00;;;;;13.76;43.62;98916.56;6221816;27;98501;-70
2022/02/11 05:15:09;;;;;;;;;21.00;20.00;;;;;13.78;43.43;98921.75;6220848;28;99491;-72
2022/02/11 05:18:13;;;;;;;;;21.40;19.40;;;;;13.77;43.51;98920.94;6239571;28;97294;-73
2022/02/11 05:21:17;;;;;;;;;22.00;21.60;;;;;13.84;43.33;98923.47;6248048;27;96643;-73
2022/02/11 05:24:20;;;;;;;;;23.00;22.00;;;;;13.75;43.64;98911.38;6238540;27;97308;-73
2022/02/11 05:27:23;;;;;;;;;22.40;21.00;;;;;13.76;43.69;98911.16;6256736;27;96511;-74
2022/02/11 05:30:28;;;;;;;;;22.00;20.40;;;;;13.76;43.67;98915.75;6238485;27;97468;-73
2022/02/11 05:33:31;;;;;;;;;20.00;19.00;;;;;13.70;43.72;98912.09;6243088;27;96686;-71
2022/02/11 05:36:34;;;;;;;;;22.80;21.20;;;;;13.71;43.74;98905.63;6231032;27;99006;-71
2022/02/11 05:39:38;;;;;;;;;23.60;21.40;;;;;13.74;43.57;98907.84;6218409;28;99433;-72
2022/02/11 05:42:41;;;;;;;;;23.00;22.00;;;;;13.74;43.63;98907.84;6236940;27;96978;-74
2022/02/11 05:45:46;;;;;;;;;25.50;22.25;;;;;13.77;43.62;98907.38;6220749;27;96895;-72
2022/02/11 05:48:49;;;;;;;;;22.60;20.60;;;;;13.80;43.59;98915.00;6238689;27;96753;-72
2022/02/11 05:51:52;;;;;;;;;22.60;22.00;;;;;13.85;43.58;98908.88;6236466;28;97138;-73
2022/02/11 05:54:56;;;;;;;;;25.20;22.00;;;;;13.77;43.39;98896.53;6235930;28;97015;-72
2022/02/11 05:57:59;;;;;;;;;25.00;22.00;;;;;13.88;43.31;98914.63;6229019;27;97500;-74
2022/02/11 06:01:04;;;;;;;;;26.60;24.00;;;;;13.94;43.17;98904.69;6219275;27;97476;-72
2022/02/11 06:04:07;;;;;;;;;22.00;21.40;;;;;14.05;43.29;98913.84;6252955;27;97440;-72
2022/02/11 06:07:11;;;;;;;;;24.00;21.00;;;;;13.84;43.92;98877.41;6250566;27;97239;-73
2022/02/11 06:10:14;;;;;;;;;24.00;21.40;;;;;14.08;44.34;98910.63;6247752;27;97334;-74
2022/02/11 06:13:18;;;;;;;;;22.00;20.00;;;;;14.05;44.40;98916.56;6234014;27;97760;-69
2022/02/11 06:16:23;;;;;;;;;22.50;20.00;;;;;14.05;45.28;98917.38;6218653;27;97276;-73
2022/02/11 06:19:27;;;;;;;;;23.00;22.00;;;;;14.07;45.28;98917.16;6257603;27;97289;-73
2022/02/11 06:22:31;;;;;;;;;25.60;20.60;;;;;14.07;45.75;98928.00;6256390;27;97548;-71
2022/02/11 06:25:34;;;;;;;;;25.20;21.20;;;;;14.00;46.01;98921.88;6241694;27;97024;-70
2022/02/11 06:28:37;;;;;;;;;24.00;23.00;;;;;13.93;46.30;98922.03;6241029;27;97875;-71
2022/02/11 06:31:42;;;;;;;;;27.00;23.40;;;;;13.87;46.46;98921.13;6239415;27;98458;-72
2022/02/11 06:34:45;;;;;;;;;27.00;24.00;;;;;13.84;46.81;98926.19;6258915;27;97826;-68
2022/02/11 06:37:50;;;;;;;;;27.00;24.25;;;;;13.82;47.10;98921.03;6239631;27;97852;-70
2022/02/11 06:40:53;;;;;;;;;25.20;24.20;;;;;13.83;46.67;98928.06;6260394;27;97450;-69
2022/02/11 06:43:56;;;;;;;;;25.80;23.00;;;;;13.81;46.89;98926.69;6260788;27;97168;-71
2022/02/11 06:47:01;;;;;;;;;25.40;23.00;;;;;13.81;47.05;98938.34;6259325;27;96599;-66
2022/02/11 06:50:05;;;;;;;;;25.00;23.00;;;;;13.79;47.84;98926.91;6241273;27;96713;-72
2022/02/11 06:53:10;;;;;;;;;26.25;24.50;;;;;13.78;48.09;98921.75;6253438;27;97697;-69
2022/02/11 06:56:13;;;;;;;;;24.40;21.40;;;;;13.77;47.97;98926.34;6240760;27;96726;-73
2022/02/11 06:59:16;;;;;;;;;29.00;24.50;;;;;13.76;48.39;98926.56;6240495;27;97399;-70
2022/02/11 07:02:21;;;;;;;;;28.00;25.00;;;;;13.76;48.43;98921.16;6263069;27;96731;-71
2022/02/11 07:05:25;;;;;;;;;29.40;26.40;;;;;13.60;48.24;98925.44;6261196;27;96678;-70
2022/02/11 07:08:28;;;;;;;;;27.40;27.00;;;;;13.68;48.42;98925.06;6235443;27;98512;-71
2022/02/11 07:11:31;;;;;;;;;28.00;24.80;;;;;13.60;48.72;98920.03;6240068;27;96901;-73
2022/02/11 07:14:35;;;;;;;;;25.00;24.00;;;;;13.36;49.23;98927.38;6253133;27;96710;-69
2022/02/11 07:17:40;;;;;;;;;30.00;27.00;;;;;13.35;49.08;98914.09;6256728;27;97511;-70
2022/02/11 07:20:43;;;;;;;;;29.00;26.40;;;;;13.23;49.34;98907.88;6221872;27;98370;-66
2022/02/11 07:23:47;;;;;;;;;25.75;24.00;;;;;13.06;49.88;98917.75;6240071;27;97181;-71
2022/02/11 07:26:50;;;;;;;;;26.00;24.00;;;;;12.88;50.49;98913.28;6259210;27;96756;-69
2022/02/11 07:29:53;;;;;;;;;26.60;26.00;;;;;12.77;50.84;98906.00;6257171;27;96995;-72
2022/02/11 07:32:58;;;;;;;;;28.00;26.00;;;;;12.86;50.59;98896.47;6239449;27;97842;-70
2022/02/11 07:36:01;;;;;;;;;27.00;23.60;;;;;12.31;50.33;98793.25;6250258;27;97266;-69
2022/02/11 07:39:05;;;;;;;;;27.40;24.40;;;;;13.02;50.69;98891.16;6239710;27;97314;-67
2022/02/11 07:42:09;;;;;;;;;28.60;26.60;;;;;13.15;50.75;98902.81;6256406;27;96633;-73
2022/02/11 07:45:12;;;;;;;;;31.40;27.00;;;;;13.25;50.60;98900.31;6255870;27;97038;-69
2022/02/11 07:48:18;;;;;;;;;30.40;29.00;;;;;13.34;50.02;98894.31;6257442;27;98309;-72
2022/02/11 07:51:22;;;;;;;;;29.75;28.00;;;;;13.43;49.73;98887.47;6259093;27;97450;-74
2022/02/11 07:54:27;;;;;;;;;27.00;25.00;;;;;13.50;49.61;98884.59;6240306;27;97835;-73
2022/02/11 07:57:30;;;;;;;;;28.75;24.00;;;;;13.55;49.36;98887.41;6257535;27;97508;-72
2022/02/11 08:00:33;;;;;;;;;25.60;24.60;;;;;13.61;49.45;98885.63;6262387;27;97415;-74
2022/02/11 08:03:38;;;;;;;;;31.00;28.40;;;;;13.64;49.34;98883.25;6248576;27;97416;-73
2022/02/11 08:06:41;;;;;;;;;30.00;28.00;;;;;13.60;49.14;98882.09;6259946;27;97897;-71
2022/02/11 08:09:45;;;;;;;;;29.75;26.00;;;;;13.60;48.98;98883.97;6239537;27;97969;-69
2022/02/11 08:12:48;;;;;;;;;32.00;28.00;;;;;13.62;48.94;98884.59;6224646;27;97264;-67
2022/02/11 08:15:52;;;;;;;;;27.50;25.50;;;;;13.65;49.06;98871.38;6256354;27;98057;-71
2022/02/11 08:18:57;;;;;;;;;29.00;28.67;;;;;13.64;49.04;98874.31;6244176;27;98586;-71
2022/02/11 08:22:01;;;;;;;;;31.00;27.40;;;;;13.66;49.16;98875.72;6244387;27;97783;-68
2022/02/11 08:25:05;;;;;;;;;31.40;28.40;;;;;13.64;49.02;98869.72;6262084;27;97584;-71
2022/02/11 08:28:08;;;;;;;;;32.00;26.40;;;;;13.68;48.73;98872.78;6228145;27;99620;-67
2022/02/11 08:31:25;;;;;;;;;33.00;29.00;;;;;13.71;48.70;98867.69;6227756;27;100133;-67
2022/02/11 08:34:30;;;;;;;;;33.00;29.00;;;;;13.76;48.48;98867.78;6245229;27;97413;-68
2022/02/11 08:37:34;;;;;;;;;30.00;27.40;;;;;13.80;48.59;98863.53;6262397;27;97533;-68
2022/02/11 08:40:37;;;;;;;;;29.20;27.20;;;;;13.85;48.22;98851.97;6240370;27;98347;-69
2022/02/11 08:43:40;;;;;;;;;30.20;28.00;;;;;13.89;47.70;98853.09;6241215;27;99730;-70
2022/02/11 08:46:44;;;;;;;;;28.00;26.00;;;;;13.80;46.40;98855.41;6261824;27;98119;-69
2022/02/11 08:49:48;;;;;;;;;31.00;28.40;;;;;13.84;45.73;98859.25;6261896;27;97027;-68
2022/02/11 08:52:52;;;;;;;;;29.25;27.00;;;;;13.85;45.22;98852.78;6244168;27;97212;-70
2022/02/11 08:55:55;;;;;;;;;27.50;25.50;;;;;13.99;45.11;98860.59;6244314;27;96891;-71
2022/02/11 08:58:58;;;;;;;;;29.40;26.60;;;;;14.08;44.92;98864.56;6260928;27;96711;-68
2022/02/11 09:02:07;;;;;;;;;29.40;26.00;;;;;14.09;44.51;98864.31;6245934;27;97498;-71
2022/02/11 09:05:13;;;;;;;;;30.40;27.00;;;;;14.12;44.34;98854.88;6244587;27;96520;-71
2022/02/11 09:08:16;;;;;;;;;28.00;27.00;;;;;14.14;44.24;98850.03;6243379;27;98163;-65
2022/02/11 09:11:21;;;;;;;;;32.80;28.00;;;;;14.24;44.38;98861.03;6241682;27;96785;-69
2022/02/11 09:14:25;;;;;;;;;30.33;27.33;;;;;14.18;44.33;98846.56;6260875;27;97323;-71
2022/02/11 09:17:28;;;;;;;;;29.75;27.50;;;;;14.35;42.99;98856.59;6226719;27;97206;-72
2022/02/11 09:20:33;;;;;;;;;32.40;27.80;;;;;14.34;43.36;98861.22;6257700;27;96740;-73
2022/02/11 09:23:37;;;;;;;;;31.00;27.00;;;;;14.31;43.33;98859.81;6238631;27;96773;-71
2022/02/11 09:26:40;;;;;;;;;30.00;26.00;;;;;14.19;43.01;98828.41;6226544;27;98357;-71
2022/02/11 09:29:45;;;;;;;;;25.60;22.60;;;;;14.44;42.33;98855.16;6241308;27;96839;-73
2022/02/11 09:32:52;;;;;;;;;27.20;25.20;;;;;14.39;42.53;98850.47;6261160;27;97040;-70
2022/02/11 09:35:57;;;;;;;;;24.60;24.00;;;;;14.43;42.66;98846.19;6243644;27;97193;-72
2022/02/11 09:39:00;;;;;;;;;31.00;26.00;;;;;14.52;42.75;98842.00;6259863;27;97517;-71
2022/02/11 09:42:04;;;;;;;;;25.60;23.60;;;;;14.57;42.20;98850.22;6259638;27;97305;-73
2022/02/11 09:45:09;;;;;;;;;28.25;24.75;;;;;14.60;42.21;98844.31;6261668;27;96704;-70
2022/02/11 09:48:12;;;;;;;;;25.00;22.20;;;;;14.71;41.88;98845.25;6226690;27;97307;-74
2022/02/11 09:51:16;;;;;;;;;26.00;22.00;;;;;14.78;41.55;98831.50;6241252;27;98701;-73
2022/02/11 09:54:20;;;;;;;;;26.40;22.40;;;;;14.84;40.91;98846.81;6240073;27;99196;-71
2022/02/11 09:57:24;;;;;;;;;23.00;20.80;;;;;14.86;40.78;98839.22;6239797;27;97440;-72
2022/02/11 10:00:28;;;;;;;;;23.60;21.00;;;;;14.93;40.77;98840.69;6230035;27;98952;-69
2022/02/11 10:03:32;;;;;;;;;23.00;21.00;;;;;14.88;40.95;98839.81;6253659;27;97404;-71
2022/02/11 10:06:37;;;;;;;;;24.00;20.60;;;;;14.97;40.43;98832.88;6259389;27;97483;-73
2022/02/11 10:09:41;;;;;;;;;23.33;23.00;;;;;14.98;40.42;98832.63;6260807;27;97566;-73
2022/02/11 10:12:44;;;;;;;;;21.00;20.00;;;;;14.99;40.33;98833.44;6251225;27;96656;-70
2022/02/11 10:15:51;;;;;;;;;25.75;22.00;;;;;14.97;40.13;98836.41;6241613;27;97480;-68
2022/02/11 10:19:00;;;;;;;;;23.00;23.00;;;;;15.04;40.53;98833.50;6241478;27;98039;-72
2022/02/11 10:22:10;;;;;;;;;23.00;21.00;;;;;15.04;40.08;98834.34;6241060;27;97222;-73
2022/02/11 10:25:13;;;;;;;;;24.40;22.40;;;;;15.10;39.90;98825.16;6240194;27;97223;-70
2022/02/11 10:28:24;;;;;;;;;22.20;20.00;;;;;15.10;39.82;98822.44;6249232;27;98512;-72
2022/02/11 10:31:31;;;;;;;;;22.00;20.20;;;;;15.07;39.98;98817.53;6240848;27;98312;-70
2022/02/11 10:34:34;;;;;;;;;23.00;21.00;;;;;15.14;39.83;98809.19;6243394;27;97328;-70
2022/02/11 10:38:04;;;;;;;;;20.20;17.60;;;;;15.25;39.69;98808.22;6242812;27;96764;-71
2022/02/11 10:41:07;;;;;;;;;19.00;18.00;;;;;15.21;39.41;98811.72;6240679;27;96918;-70
2022/02/11 10:44:13;;;;;;;;;18.00;17.00;;;;;15.18;39.36;98808.44;6255442;27;96595;-72
2022/02/11 10:47:17;;;;;;;;;16.75;15.75;;;;;15.11;39.17;98794.22;6241061;27;96672;-70
2022/02/11 10:50:21;;;;;;;;;16.00;14.25;;;;;15.10;39.17;98798.00;6257351;27;96901;-72
2022/02/11 10:53:29;;;;;;;;;18.20;16.20;;;;;15.18;38.84;98794.03;6240004;27;98393;-70
2022/02/11 10:56:32;;;;;;;;;14.80;13.00;;;;;15.11;38.36;98788.78;6259891;27;97219;-73
2022/02/11 10:59:37;;;;;;;;;12.40;11.40;;;;;15.12;38.00;98801.31;6240830;27;96887;-73
2022/02/11 11:02:41;;;;;;;;;12.00;10.40;;;;;15.04;38.02;98788.19;6236295;27;96658;-73
2022/02/11 11:05:45;;;;;;;;;12.60;10.00;;;;;15.04;38.16;98787.34;6259499;27;96852;-70
2022/02/11 11:08:53;;;;;;;;;12.00;11.00;;;;;14.81;38.06;98747.69;6222539;27;98365;-71
2022/02/11 11:11:57;;;;;;;;;11.00;10.80;;;;;15.00;37.97;98781.59;6237064;27;98330;-71
2022/02/11 11:15:03;;;;;;;;;11.00;9.60;;;;;14.91;37.70;98796.69;6239461;27;97105;-69
2022/02/11 11:18:10;;;;;;;;;11.60;9.20;;;;;14.86;37.94;98795.78;6239804;27;97850;-72
2022/02/11 11:21:14;;;;;;;;;10.60;10.00;;;;;14.87;37.60;98806.41;6257642;27;96725;-70
2022/02/11 11:24:20;;;;;;;;;9.00;9.00;;;;;14.81;37.89;98798.47;6240352;27;97407;-71
2022/02/11 11:27:41;;;;;;;;;10.00;9.00;;;;;14.58;37.74;98804.91;6240214;27;98091;-69
2022/02/11 11:30:54;;;;;;;;;10.00;10.00;;;;;14.60;37.98;98790.03;6260086;27;97462;-70
2022/02/11 11:34:25;;;;;;;;;11.00;10.00;;;;;14.53;37.95;98799.41;6263267;27;97298;-72
2022/02/11 11:37:28;;;;;;;;;10.20;9.00;;;;;14.57;38.00;98798.66;6245753;27;96708;-68
2022/02/11 11:40:33;;;;;;;;;11.60;10.60;;;;;14.50;37.57;98789.06;6242842;27;99452;-72
2022/02/11 11:43:39;;;;;;;;;12.50;11.00;;;;;14.55;37.72;98783.72;6241398;27;99008;-70
2022/02/11 11:46:49;;;;;;;;;12.00;10.75;;;;;14.64;37.55;98772.19;6224659;27;97133;-73
2022/02/11 11:49:52;;;;;;;;;11.00;10.00;;;;;14.67;37.82;98776.28;6253592;27;97032;-71
2022/02/11 11:52:58;;;;;;;;;12.00;10.00;;;;;14.74;37.15;98764.19;6241411;27;97146;-72
2022/02/11 11:56:32;;;;;;;;;10.00;9.25;;;;;14.82;36.63;98772.94;6242001;27;100089;-71
2022/02/11 11:59:39;;;;;;;;;11.00;10.00;;;;;14.94;36.41;98768.22;6243295;27;97759;-72
2022/02/11 12:02:49;;;;;;;;;11.00;10.00;;;;;15.04;36.21;98771.06;6259358;27;96603;-72
2022/02/11 12:05:55;;;;;;;;;9.00;8.00;;;;;15.15;35.85;98761.94;6243307;27;97820;-71
2022/02/11 12:08:58;;;;;;;;;9.20;8.20;;;;;15.27;36.03;98768.06;6260892;27;96609;-68
2022/02/11 12:12:04;;;;;;;;;12.40;10.00;;;;;15.35;35.77;98773.03;6243481;27;97120;-71
2022/02/11 12:15:10;;;;;;;;;9.00;9.00;;;;;15.29;35.57;98762.41;6261939;27;97707;-70
2022/02/11 12:18:13;;;;;;;;;8.60;8.60;;;;;15.13;35.38;98764.13;6260250;27;97649;-72
2022/02/11 12:21:17;;;;;;;;;9.20;8.20;;;;;14.99;35.72;98774.53;6244502;27;97163;-68
2022/02/11 12:27:46;;;;;;;;;11.00;10.00;;;;;14.92;36.18;98779.31;6251941;27;98708;-67
2022/02/11 12:30:49;;;;;;;;;9.60;9.00;;;;;14.77;35.97;98772.88;6260008;27;96681;-71
2022/02/11 12:33:53;;;;;;;;;8.00;7.80;;;;;14.78;35.72;98777.22;6258438;27;96822;-68
2022/02/11 12:37:08;;;;;;;;;6.40;6.00;;;;;14.72;35.71;98773.63;6260373;27;97501;-70
2022/02/11 12:40:15;;;;;;;;;8.00;6.75;;;;;14.70;35.65;98773.91;6259276;27;96725;-66
2022/02/11 12:43:20;;;;;;;;;5.00;4.40;;;;;14.66;35.41;98769.22;6260266;27;97220;-71
2022/02/11 12:46:23;;;;;;;;;6.00;6.00;;;;;14.60;35.58;98779.19;6254327;27;97363;-69
2022/02/11 12:49:27;;;;;;;;;6.00;5.40;;;;;14.51;35.85;98786.13;6241763;27;97486;-71
2022/02/11 12:52:33;;;;;;;;;5.20;5.20;;;;;14.22;36.12;98771.78;6238439;27;97478;-69
2022/02/11 12:55:38;;;;;;;;;6.67;5.67;;;;;13.84;36.94;98782.56;6237969;27;98751;-69
2022/02/11 12:58:43;;;;;;;;;7.00;6.00;;;;;13.95;37.59;98783.56;6235092;27;100876;-69
2022/02/11 13:01:46;;;;;;;;;9.00;8.00;;;;;13.82;38.06;98790.97;6255403;27;96698;-68
2022/02/11 13:05:01;;;;;;;;;8.50;7.00;;;;;13.76;38.66;98786.50;6222287;27;97860;-68
2022/02/11 13:08:08;;;;;;;;;8.40;8.00;;;;;13.77;38.89;98796.28;6224300;27;97696;-67
2022/02/11 13:11:14;;;;;;;;;6.00;5.00;;;;;13.76;39.34;98793.81;6257739;27;97464;-69
2022/02/11 13:14:19;;;;;;;;;7.60;7.40;;;;;13.78;39.41;98808.75;6261237;27;96662;-68
2022/02/11 13:17:29;;;;;;;;;7.00;6.00;;;;;13.66;40.17;98836.97;6240535;27;96758;-65
2022/02/11 13:20:36;;;;;;;;;8.20;7.20;;;;;13.53;41.51;98832.69;6241499;27;97048;-68
2022/02/11 13:23:42;;;;;;;;;7.00;6.00;;;;;13.40;41.95;98831.06;6259449;27;97115;-68
2022/02/11 13:26:45;;;;;;;;;7.75;6.00;;;;;13.47;42.59;98830.94;6240214;27;98610;-68
2022/02/11 13:30:03;;;;;;;;;10.00;9.00;;;;;13.47;43.51;98833.66;6244412;27;96689;-65
2022/02/11 13:33:19;;;;;;;;;8.00;7.00;;;;;13.53;43.73;98843.53;6240774;27;98403;-68
2022/02/11 13:36:24;;;;;;;;;9.50;7.00;;;;;13.62;43.93;98855.59;6259235;27;96690;-71
2022/02/11 13:39:30;;;;;;;;;7.60;7.00;;;;;13.45;44.09;98846.59;6239985;27;96728;-66
2022/02/11 13:42:34;;;;;;;;;7.67;7.67;;;;;13.53;44.89;98858.94;6240710;27;96994;-66
2022/02/11 13:45:54;;;;;;;;;9.00;8.00;;;;;13.44;44.73;98855.78;6257358;27;97177;-70
2022/02/11 13:49:02;;;;;;;;;9.00;9.00;;;;;13.47;44.92;98859.91;6255616;27;96977;-68
2022/02/11 13:55:36;;;;;;;;;9.20;8.00;;;;;13.21;45.19;98872.09;6186731;27;97376;-70
2022/02/11 13:58:41;;;;;;;;;9.00;9.00;;;;;13.07;45.78;98889.63;6259598;27;97706;-72
2022/02/11 14:01:47;;;;;;;;;7.40;6.80;;;;;13.04;45.69;98899.06;6224928;27;98744;-71
2022/02/11 14:05:01;;;;;;;;;20.00;15.40;;;;;12.92;46.00;98909.06;6256755;27;96972;-71
2022/02/11 14:08:05;;;;;;;;;8.00;7.40;;;;;12.75;46.78;98921.66;6240445;27;96774;-66
2022/02/11 14:11:10;;;;;;;;;8.00;7.40;;;;;12.76;47.42;98925.97;6260853;27;97693;-68
2022/02/11 14:14:17;;;;;;;;;9.50;8.00;;;;;12.62;47.81;98941.63;6259890;27;97393;-67
2022/02/11 14:17:22;;;;;;;;;9.40;9.00;;;;;12.60;47.84;98941.03;6259572;27;96910;-68
2022/02/11 14:20:25;;;;;;;;;10.20;9.20;;;;;12.39;48.49;98942.41;6257525;27;96621;-68
2022/02/11 14:23:31;;;;;;;;;12.40;11.80;;;;;12.32;48.87;98944.38;6259612;27;96697;-70
2022/02/11 14:26:35;;;;;;;;;9.00;9.00;;;;;12.20;49.55;98964.34;6224507;27;96703;-67
2022/02/11 14:29:38;;;;;;;;;11.00;10.00;;;;;12.00;49.83;98980.81;6263854;27;97566;-69
2022/02/11 14:32:43;;;;;;;;;11.20;9.00;;;;;12.04;49.76;99009.88;6256943;27;98134;-68
2022/02/11 14:35:47;;;;;;;;;8.00;7.00;;;;;11.94;48.72;99023.09;6242301;27;96869;-71
2022/02/11 14:38:51;;;;;;;;;6.00;5.60;;;;;11.76;48.99;99011.47;6255333;27;98021;-73
2022/02/11 14:41:57;;;;;;;;;6.60;6.60;;;;;11.70;49.25;99027.50;6257407;27;96635;-68
2022/02/11 14:45:04;;;;;;;;;9.00;7.00;;;;;11.52;49.54;99032.91;6230682;27;96841;-68
2022/02/11 14:48:08;;;;;;;;;8.00;7.40;;;;;11.46;48.76;99058.09;6241098;27;97890;-71
2022/02/11 14:51:12;;;;;;;;;8.00;8.00;;;;;11.37;48.91;99069.41;6255394;27;97067;-71
2022/02/11 14:54:15;;;;;;;;;8.00;8.00;;;;;11.34;48.71;99094.16;6236111;27;97539;-68
2022/02/11 14:57:18;;;;;;;;;7.00;6.40;;;;;11.18;48.65;99088.25;6238581;27;100102;-71
2022/02/11 15:00:22;;;;;;;;;6.00;5.00;;;;;11.02;48.04;99105.00;6227914;28;97439;-68
2022/02/11 15:03:28;;;;;;;;;7.00;7.00;;;;;11.00;47.98;99125.94;6231542;28;98095;-68
2022/02/11 15:06:31;;;;;;;;;5.00;4.60;;;;;10.88;47.41;99143.06;6226566;28;97399;-72
2022/02/11 15:09:35;;;;;;;;;5.00;4.00;;;;;10.64;47.52;99156.28;6231978;28;96947;-71
2022/02/11 15:12:38;;;;;;;;;5.00;5.00;;;;;10.61;47.83;99170.16;6233590;27;97013;-70
2022/02/11 15:15:42;;;;;;;;;6.00;6.00;;;;;10.49;47.91;99182.69;6226955;27;98598;-71
2022/02/11 15:18:47;;;;;;;;;4.00;4.00;;;;;10.42;47.71;99198.03;6228854;28;96661;-68
2022/02/11 15:21:51;;;;;;;;;4.00;4.00;;;;;10.55;46.97;99198.00;6220711;28;96734;-71
2022/02/11 15:24:57;;;;;;;;;4.40;4.00;;;;;10.51;47.45;99212.09;6235840;28;97132;-68
2022/02/11 15:28:00;;;;;;;;;3.00;3.00;;;;;10.49;47.24;99224.97;6242570;28;96833;-72
2022/02/11 15:31:05;;;;;;;;;3.40;3.00;;;;;10.39;47.83;99242.44;6231334;28;96676;-72
2022/02/11 15:34:10;;;;;;;;;3.60;3.60;;;;;10.30;47.31;99251.78;6203957;28;97089;-69
2022/02/11 15:37:16;;;;;;;;;5.00;4.00;;;;;10.39;47.24;99264.00;6230676;28;98160;-70
2022/02/11 15:40:19;;;;;;;;;4.40;4.00;;;;;10.26;47.29;99268.59;6230600;28;99462;-69
2022/02/11 15:43:23;;;;;;;;;5.80;5.00;;;;;10.12;47.01;99288.44;6231461;28;97310;-72
2022/02/11 15:46:27;;;;;;;;;3.60;3.60;;;;;9.05;46.57;99119.94;6227663;27;96872;-71
2022/02/11 15:49:32;;;;;;;;;3.00;3.00;;;;;10.18;46.68;99306.50;6230687;28;100659;-70
2022/02/11 15:52:35;;;;;;;;;4.80;4.80;;;;;9.86;46.76;99306.31;6213940;27;96495;-72
2022/02/11 15:55:39;;;;;;;;;5.00;5.00;;;;;9.76;47.01;99315.81;6227982;28;97415;-71
2022/02/11 15:58:43;;;;;;;;;4.50;4.00;;;;;9.25;46.66;99242.88;6231263;27;96994;-68
2022/02/11 16:01:48;;;;;;;;;5.00;4.00;;;;;9.94;46.58;99335.72;6243356;27;97520;-70
2022/02/11 16:04:52;;;;;;;;;4.20;4.20;;;;;9.97;46.60;99351.47;6218816;28;96550;-72
2022/02/11 16:07:56;;;;;;;;;5.00;5.00;;;;;9.97;46.21;99358.69;6203872;28;96660;-69
2022/02/11 16:10:59;;;;;;;;;4.25;4.00;;;;;10.05;46.04;99368.47;6245576;27;97464;-71
2022/02/11 16:14:02;;;;;;;;;5.00;4.00;;;;;10.04;45.69;99383.78;6251197;27;97382;-72
2022/02/11 16:17:10;;;;;;;;;5.00;4.60;;;;;10.05;45.63;99382.75;6249780;27;97489;-72
2022/02/11 16:20:15;;;;;;;;;4.00;4.00;;;;;10.08;45.58;99390.44;6227985;27;96568;-69
2022/02/11 16:23:20;;;;;;;;;6.60;5.60;;;;;9.88;45.95;99393.09;6234320;27;97332;-71
2022/02/11 16:26:23;;;;;;;;;7.00;6.00;;;;;9.89;46.18;99404.69;6252433;27;97009;-71
2022/02/11 16:29:31;;;;;;;;;7.00;6.60;;;;;9.86;46.41;99414.03;6242717;27;97704;-69
2022/02/11 16:32:35;;;;;;;;;8.00;6.60;;;;;9.75;46.62;99416.47;6247199;27;97179;-71
2022/02/11 16:35:41;;;;;;;;;7.00;7.00;;;;;9.62;46.12;99390.38;6210505;28;97703;-70
2022/02/11 16:38:46;;;;;;;;;6.75;5.75;;;;;9.85;46.04;99428.53;6230281;27;97501;-69
2022/02/11 16:41:49;;;;;;;;;6.00;5.25;;;;;9.90;46.28;99430.59;6237041;27;98120;-72
2022/02/11 16:44:52;;;;;;;;;6.40;6.00;;;;;9.81;45.91;99416.50;6254481;27;96912;-70
2022/02/11 16:47:56;;;;;;;;;8.40;6.00;;;;;9.97;45.63;99436.81;6229724;27;99397;-71
2022/02/11 16:51:01;;;;;;;;;5.80;4.20;;;;;9.86;45.80;99437.44;6256665;27;96758;-70
2022/02/11 16:54:04;;;;;;;;;5.00;5.00;;;;;9.86;45.84;99440.13;6269488;27;96262;-71
2022/02/11 16:57:07;;;;;;;;;6.00;5.00;;;;;9.90;45.52;99444.91;6249955;27;97888;-72
2022/02/11 17:00:13;;;;;;;;;5.00;4.00;;;;;9.84;45.69;99450.25;6236053;28;97357;-71
2022/02/11 17:03:16;;;;;;;;;4.00;4.00;;;;;9.90;45.89;99454.84;6230766;28;96538;-71
2022/02/11 17:06:21;;;;;;;;;7.00;7.00;;;;;9.68;46.68;99459.53;6232660;27;96771;-69
2022/02/11 17:09:24;;;;;;;;;8.00;7.60;;;;;9.82;46.66;99465.81;6229626;27;97604;-70
2022/02/11 17:12:29;;;;;;;;;8.00;7.75;;;;;9.88;46.78;99456.91;6234593;27;96740;-71
2022/02/11 17:15:33;;;;;;;;;9.00;8.00;;;;;9.68;47.11;99421.84;6232067;28;96446;-70
2022/02/11 17:18:38;;;;;;;;;9.00;7.40;;;;;9.95;46.94;99461.28;6256089;27;96478;-72
2022/02/11 17:21:43;;;;;;;;;8.20;8.00;;;;;9.99;47.00;99461.69;6226593;27;97937;-72
2022/02/11 17:24:47;;;;;;;;;9.50;9.25;;;;;9.92;47.08;99466.25;6221138;28;96563;-70
2022/02/11 17:27:50;;;;;;;;;12.00;9.00;;;;;9.91;47.00;99476.19;6196991;28;96964;-72
2022/02/11 17:30:55;;;;;;;;;10.00;8.75;;;;;9.97;46.77;99469.97;6218602;28;96446;-70